createdAt,value
2022-11-25T00:01:08.209Z,77.72
2022-11-25T00:03:36.584Z,77.68
2022-11-25T00:06:12.495Z,78.22
2022-11-25T00:08:42.639Z,77.91
2022-11-25T00:11:10.874Z,78.21
2022-11-25T00:13:39.567Z,78.07
2022-11-25T00:16:09.734Z,78.26
2022-11-25T00:18:37.627Z,78.03
2022-11-25T00:21:08.115Z,77.72
2022-11-25T00:23:36.015Z,78.30
2022-11-25T00:26:09.455Z,79.12
2022-11-25T00:28:37.818Z,79.46
2022-11-25T00:31:07.056Z,79.37
2022-11-25T00:33:34.645Z,79.84
2022-11-25T00:36:03.432Z,79.83
2022-11-25T00:38:31.293Z,79.50
2022-11-25T00:41:12.910Z,79.55
2022-11-25T00:44:14.098Z,79.22
2022-11-25T00:46:42.458Z,78.77
2022-11-25T00:49:10.454Z,78.53
2022-11-25T00:51:38.460Z,78.26
2022-11-25T00:54:06.501Z,77.98
2022-11-25T00:56:34.393Z,77.84
2022-11-25T00:59:03.812Z,77.73
2022-11-25T01:01:31.615Z,77.65
2022-11-25T01:03:59.554Z,77.38
2022-11-25T01:06:27.583Z,77.47
2022-11-25T01:08:55.379Z,77.58
2022-11-25T01:11:24.623Z,77.35
2022-11-25T01:14:00.705Z,77.18
2022-11-25T01:16:31.525Z,77.36
2022-11-25T01:19:00.024Z,77.39
2022-11-25T01:21:29.369Z,77.37
2022-11-25T01:23:57.114Z,77.54
2022-11-25T01:26:25.966Z,77.65
2022-11-25T01:28:56.291Z,77.50
2022-11-25T01:31:25.659Z,77.40
2022-11-25T01:33:57.011Z,77.69
2022-11-25T01:36:25.243Z,77.53
2022-11-25T01:38:55.808Z,77.29
2022-11-25T01:41:25.284Z,77.45
2022-11-25T01:44:07.216Z,77.41
2022-11-25T01:46:44.324Z,77.35
2022-11-25T01:49:16.954Z,77.45
2022-11-25T01:51:48.739Z,77.96
2022-11-25T01:54:19.174Z,78.10
2022-11-25T01:56:50.473Z,78.63
2022-11-25T01:59:18.428Z,78.51
2022-11-25T02:01:46.182Z,78.82
2022-11-25T02:04:16.191Z,79.39
2022-11-25T02:06:48.865Z,79.47
2022-11-25T02:09:17.548Z,79.58
2022-11-25T02:11:45.894Z,79.82
2022-11-25T02:14:14.154Z,80.12
2022-11-25T02:16:42.009Z,80.23
2022-11-25T02:19:16.205Z,80.86
2022-11-25T02:21:47.093Z,80.74
2022-11-25T02:24:19.962Z,81.55
2022-11-25T02:26:49.147Z,81.38
2022-11-25T02:29:16.853Z,81.43
2022-11-25T02:31:45.221Z,81.58
2022-11-25T02:34:12.887Z,81.30
2022-11-25T02:36:40.581Z,81.66
2022-11-25T02:39:08.698Z,81.97
2022-11-25T02:41:38.828Z,82.28
2022-11-25T02:44:07.908Z,82.32
2022-11-25T02:46:35.925Z,82.41
2022-11-25T02:49:09.227Z,82.54
2022-11-25T02:51:38.002Z,82.44
2022-11-25T02:54:06.144Z,82.69
2022-11-25T02:56:35.659Z,82.88
2022-11-25T02:59:04.095Z,83.02
2022-11-25T03:01:35.104Z,82.60
2022-11-25T03:04:03.482Z,82.38
2022-11-25T03:06:31.252Z,82.66
2022-11-25T03:08:59.441Z,82.63
2022-11-25T03:11:47.585Z,82.90
2022-11-25T03:14:15.190Z,83.09
2022-11-25T03:16:44.925Z,83.00
2022-11-25T03:19:12.801Z,82.98
2022-11-25T03:21:40.496Z,83.06
2022-11-25T03:24:08.605Z,82.95
2022-11-25T03:26:36.554Z,82.79
2022-11-25T03:29:04.361Z,82.93
2022-11-25T03:31:32.238Z,83.16
2022-11-25T03:34:01.417Z,83.46
2022-11-25T03:36:29.064Z,83.47
2022-11-25T03:38:56.680Z,83.79
2022-11-25T03:41:24.452Z,83.87
2022-11-25T03:43:52.378Z,84.18
2022-11-25T03:46:20.039Z,84.30
2022-11-25T03:48:47.981Z,84.20
2022-11-25T03:51:17.027Z,84.56
2022-11-25T03:53:44.688Z,84.53
2022-11-25T03:56:12.393Z,84.77
2022-11-25T03:58:40.297Z,84.41
2022-11-25T04:01:08.040Z,84.57
2022-11-25T04:03:35.924Z,84.44
2022-11-25T04:06:04.260Z,84.57
2022-11-25T04:08:33.345Z,84.70
2022-11-25T04:11:01.150Z,84.27
2022-11-25T04:13:27.877Z,84.38
2022-11-25T04:15:55.555Z,84.16
2022-11-25T04:18:23.241Z,84.24
2022-11-25T04:20:51.137Z,84.43
2022-11-25T04:23:18.927Z,84.40
2022-11-25T04:25:50.500Z,84.24
2022-11-25T04:28:18.516Z,84.26
2022-11-25T04:30:46.222Z,84.00
2022-11-25T04:33:15.893Z,83.92
2022-11-25T04:35:43.829Z,83.60
2022-11-25T04:38:11.535Z,83.83
2022-11-25T04:40:39.179Z,83.76
2022-11-25T04:43:10.652Z,83.63
2022-11-25T04:46:06.499Z,83.37
2022-11-25T04:48:26.878Z,83.22
2022-11-25T04:50:54.642Z,83.47
2022-11-25T04:53:22.535Z,83.19
2022-11-25T04:55:50.301Z,83.29
2022-11-25T04:58:40.123Z,83.04
2022-11-25T05:01:06.961Z,82.85
2022-11-25T05:03:34.714Z,82.74
2022-11-25T05:06:07.656Z,82.88
2022-11-25T05:08:46.137Z,83.24
2022-11-25T05:11:14.102Z,83.13
2022-11-25T05:13:44.456Z,82.98
2022-11-25T05:16:13.237Z,82.67
2022-11-25T05:18:40.993Z,82.98
2022-11-25T05:21:08.640Z,82.35
2022-11-25T05:23:36.339Z,82.39
2022-11-25T05:26:05.354Z,82.24
2022-11-25T05:28:33.570Z,82.46
2022-11-25T05:31:03.015Z,82.23
2022-11-25T05:33:30.889Z,82.37
2022-11-25T05:36:00.113Z,81.92
2022-11-25T05:38:28.299Z,82.47
2022-11-25T05:41:01.919Z,82.60
2022-11-25T05:43:29.815Z,82.35
2022-11-25T05:45:57.709Z,82.26
2022-11-25T05:48:26.856Z,82.44
2022-11-25T05:50:54.483Z,82.12
2022-11-25T05:53:22.145Z,82.19
2022-11-25T05:55:55.299Z,82.14
2022-11-25T05:58:23.226Z,82.14
2022-11-25T06:00:51.105Z,81.77
2022-11-25T06:03:19.083Z,81.96
2022-11-25T06:05:48.361Z,81.96
2022-11-25T06:08:16.229Z,82.10
2022-11-25T06:10:44.012Z,82.51
2022-11-25T06:13:11.632Z,82.42
2022-11-25T06:15:42.147Z,82.49
2022-11-25T06:18:10.254Z,82.12
2022-11-25T06:20:38.114Z,82.55
2022-11-25T06:23:07.669Z,82.21
2022-11-25T06:25:35.583Z,82.39
2022-11-25T06:28:18.879Z,82.20
2022-11-25T06:30:46.682Z,82.27
2022-11-25T06:33:14.569Z,82.45
2022-11-25T06:35:42.373Z,82.16
2022-11-25T06:38:11.631Z,82.24
2022-11-25T06:40:39.531Z,81.97
2022-11-25T06:43:09.712Z,81.96
2022-11-25T06:45:37.413Z,82.06
2022-11-25T06:48:05.765Z,82.46
2022-11-25T06:50:33.510Z,82.44
2022-11-25T06:53:02.033Z,82.15
2022-11-25T06:55:31.182Z,81.98
2022-11-25T06:58:13.930Z,82.08
2022-11-25T07:00:46.542Z,81.89
2022-11-25T07:03:14.326Z,81.98
2022-11-25T07:05:42.222Z,81.96
2022-11-25T07:08:09.889Z,82.58
2022-11-25T07:10:39.262Z,82.62
2022-11-25T07:13:06.860Z,82.32
2022-11-25T07:15:35.838Z,82.28
2022-11-25T07:18:03.501Z,82.04
2022-11-25T07:20:31.189Z,82.10
2022-11-25T07:22:59.087Z,81.73
2022-11-25T07:25:30.668Z,81.65
2022-11-25T07:28:00.655Z,81.83
2022-11-25T07:31:21.624Z,81.58
2022-11-25T07:33:16.727Z,81.06
2022-11-25T07:35:44.972Z,81.23
2022-11-25T07:38:12.641Z,81.22
2022-11-25T07:40:40.586Z,80.98
2022-11-25T07:43:09.914Z,80.48
2022-11-25T07:45:40.179Z,80.30
2022-11-25T07:48:07.977Z,80.31
2022-11-25T07:50:35.812Z,80.29
2022-11-25T07:53:03.468Z,80.68
2022-11-25T07:55:31.343Z,80.50
2022-11-25T07:57:58.956Z,80.52
2022-11-25T08:00:32.972Z,80.37
2022-11-25T08:03:00.806Z,79.85
2022-11-25T08:05:28.621Z,79.83
2022-11-25T08:07:56.329Z,80.00
2022-11-25T08:10:24.494Z,79.88
2022-11-25T08:12:52.675Z,79.83
2022-11-25T08:15:20.585Z,79.95
2022-11-25T08:17:52.767Z,79.63
2022-11-25T08:20:20.584Z,79.52
2022-11-25T08:22:48.428Z,79.43
2022-11-25T08:25:17.209Z,79.60
2022-11-25T08:27:44.808Z,79.12
2022-11-25T08:30:13.909Z,78.92
2022-11-25T08:32:41.790Z,79.23
2022-11-25T08:35:12.157Z,79.27
2022-11-25T08:37:40.324Z,78.96
2022-11-25T08:40:10.509Z,78.63
2022-11-25T08:42:38.319Z,78.87
2022-11-25T08:45:07.666Z,78.63
2022-11-25T08:47:35.332Z,78.47
2022-11-25T08:50:03.108Z,79.12
2022-11-25T08:52:38.428Z,78.82
2022-11-25T08:55:07.476Z,79.26
2022-11-25T08:57:36.150Z,79.12
2022-11-25T09:00:05.232Z,79.01
2022-11-25T09:02:33.121Z,79.15
2022-11-25T09:05:00.985Z,78.98
2022-11-25T09:07:30.874Z,79.39
2022-11-25T09:10:00.200Z,80.02
2022-11-25T09:12:27.945Z,80.25
2022-11-25T09:14:55.622Z,80.55
2022-11-25T09:17:23.673Z,80.46
2022-11-25T09:19:51.516Z,79.97
2022-11-25T09:22:19.155Z,80.46
2022-11-25T09:24:46.870Z,81.27
2022-11-25T09:27:15.891Z,81.05
2022-11-25T09:29:43.852Z,81.34
2022-11-25T09:32:11.745Z,81.73
2022-11-25T09:34:39.677Z,81.91
2022-11-25T09:37:07.517Z,81.71
2022-11-25T09:39:35.872Z,81.54
2022-11-25T09:42:32.803Z,81.78
2022-11-25T09:45:29.880Z,82.15
2022-11-25T09:48:07.810Z,81.68
2022-11-25T09:50:54.597Z,81.89
2022-11-25T09:53:29.907Z,81.47
2022-11-25T09:56:02.557Z,81.13
2022-11-25T09:58:34.557Z,81.01
2022-11-25T10:01:05.659Z,80.50
2022-11-25T10:03:37.278Z,80.76
2022-11-25T10:06:08.066Z,80.60
2022-11-25T10:08:38.709Z,80.63
2022-11-25T10:11:16.132Z,80.76
2022-11-25T10:13:49.122Z,80.90
2022-11-25T10:16:29.291Z,80.67
2022-11-25T10:19:01.314Z,80.90
2022-11-25T10:21:29.267Z,80.92
2022-11-25T10:23:57.003Z,80.58
2022-11-25T10:26:29.373Z,80.64
2022-11-25T10:28:58.316Z,80.38
2022-11-25T10:31:32.101Z,80.02
2022-11-25T10:34:00.825Z,79.55
2022-11-25T10:36:31.296Z,79.74
2022-11-25T10:39:02.821Z,79.70
2022-11-25T10:41:32.994Z,79.62
2022-11-25T10:44:00.694Z,79.49
2022-11-25T10:46:57.416Z,79.70
2022-11-25T10:49:28.971Z,79.78
2022-11-25T10:51:57.457Z,79.58
2022-11-25T10:54:28.220Z,79.44
2022-11-25T10:56:59.288Z,79.30
2022-11-25T10:59:32.053Z,79.18
2022-11-25T11:02:25.793Z,79.27
2022-11-25T11:04:59.096Z,79.66
2022-11-25T11:07:28.509Z,79.32
2022-11-25T11:09:56.386Z,79.44
2022-11-25T11:12:25.913Z,79.67
2022-11-25T11:14:54.216Z,79.85
2022-11-25T11:17:37.526Z,79.74
2022-11-25T11:20:17.127Z,79.53
2022-11-25T11:22:51.273Z,79.21
2022-11-25T11:25:28.513Z,79.24
2022-11-25T11:27:56.819Z,79.05
2022-11-25T11:30:26.773Z,79.41
2022-11-25T11:33:06.953Z,79.72
2022-11-25T11:35:45.248Z,79.57
2022-11-25T11:38:30.880Z,80.21
2022-11-25T11:41:12.343Z,80.55
2022-11-25T11:43:54.485Z,81.03
2022-11-25T11:46:31.532Z,81.41
2022-11-25T11:49:12.179Z,81.75
2022-11-25T11:51:43.998Z,81.54
2022-11-25T11:54:17.010Z,81.50
2022-11-25T11:56:53.588Z,81.12
2022-11-25T11:59:35.821Z,81.18
2022-11-25T12:02:16.590Z,80.87
2022-11-25T12:04:48.676Z,80.00
2022-11-25T12:07:21.794Z,80.04
2022-11-25T12:09:54.058Z,79.83
2022-11-25T12:12:24.699Z,80.29
2022-11-25T12:15:00.590Z,80.53
2022-11-25T12:17:37.267Z,80.19
2022-11-25T12:20:15.575Z,80.37
2022-11-25T12:22:47.160Z,80.39
2022-11-25T12:25:19.725Z,80.76
2022-11-25T12:27:51.125Z,81.09
2022-11-25T12:30:20.973Z,80.76
2022-11-25T12:33:05.526Z,80.68
2022-11-25T12:35:42.397Z,81.01
2022-11-25T12:38:20.126Z,81.24
2022-11-25T12:40:53.174Z,81.01
2022-11-25T12:43:29.669Z,81.01
2022-11-25T12:46:07.710Z,81.22
2022-11-25T12:48:40.920Z,81.16
2022-11-25T12:51:18.323Z,81.29
2022-11-25T12:53:51.641Z,81.19
2022-11-25T12:56:26.087Z,80.94
2022-11-25T12:59:04.074Z,80.33
2022-11-25T13:02:13.877Z,80.80
2022-11-25T13:05:18.536Z,80.36
2022-11-25T13:08:01.867Z,80.39
2022-11-25T13:10:48.727Z,80.74
2022-11-25T13:13:28.690Z,80.87
2022-11-25T13:15:57.476Z,81.24
2022-11-25T13:18:31.181Z,81.08
2022-11-25T13:21:07.182Z,81.33
2022-11-25T13:23:49.906Z,81.50
2022-11-25T13:26:49.791Z,81.17
2022-11-25T13:30:07.777Z,80.88
2022-11-25T13:32:38.669Z,80.57
2022-11-25T13:35:38.526Z,80.51
2022-11-25T13:38:49.493Z,80.66
2022-11-25T13:41:34.725Z,80.62
2022-11-25T13:44:07.485Z,80.78
2022-11-25T13:46:40.453Z,80.65
2022-11-25T13:49:23.185Z,80.80
2022-11-25T13:51:52.206Z,81.00
2022-11-25T13:54:23.572Z,80.94
2022-11-25T13:57:27.849Z,80.76
2022-11-25T13:59:57.910Z,81.23
2022-11-25T14:02:37.203Z,81.94
2022-11-25T14:05:21.009Z,81.89
2022-11-25T14:07:54.044Z,82.09
2022-11-25T14:10:32.802Z,82.22
2022-11-25T14:13:12.685Z,82.30
2022-11-25T14:15:52.572Z,82.09
2022-11-25T14:19:11.980Z,81.73
2022-11-25T14:21:45.252Z,81.85
2022-11-25T14:24:23.136Z,81.63
2022-11-25T14:26:52.566Z,81.42
2022-11-25T14:29:27.696Z,81.76
2022-11-25T14:31:59.026Z,81.71
2022-11-25T14:34:30.839Z,81.91
2022-11-25T14:37:03.066Z,82.21
2022-11-25T14:39:35.176Z,82.58
2022-11-25T14:42:04.499Z,82.58
2022-11-25T14:44:40.825Z,82.74
2022-11-25T14:47:08.534Z,82.88
2022-11-25T14:49:55.711Z,82.77
2022-11-25T14:52:35.826Z,82.83
2022-11-25T14:55:08.868Z,83.01
2022-11-25T14:57:38.737Z,82.96
2022-11-25T15:00:18.735Z,83.11
2022-11-25T15:02:56.177Z,83.28
2022-11-25T15:05:28.257Z,83.65
2022-11-25T15:08:02.225Z,83.46
2022-11-25T15:10:44.593Z,83.17
2022-11-25T15:13:25.560Z,83.04
2022-11-25T15:15:55.970Z,83.30
2022-11-25T15:18:25.101Z,83.13
2022-11-25T15:20:57.364Z,83.13
2022-11-25T15:23:29.262Z,83.45
2022-11-25T15:25:58.239Z,83.65
2022-11-25T15:28:26.070Z,83.65
2022-11-25T15:31:01.893Z,83.98
2022-11-25T15:33:30.330Z,83.97
2022-11-25T15:35:58.174Z,83.85
2022-11-25T15:38:42.117Z,83.50
2022-11-25T15:41:20.419Z,83.68
2022-11-25T15:43:49.980Z,83.64
2022-11-25T15:46:19.664Z,83.73
2022-11-25T15:48:48.948Z,83.82
2022-11-25T15:51:25.088Z,83.84
2022-11-25T15:53:55.034Z,84.06
2022-11-25T15:56:25.264Z,83.92
2022-11-25T15:58:56.169Z,84.57
2022-11-25T16:01:30.144Z,84.45
2022-11-25T16:04:11.513Z,84.68
2022-11-25T16:06:54.120Z,84.91
2022-11-25T16:09:22.475Z,84.61
2022-11-25T16:11:50.668Z,84.68
2022-11-25T16:14:20.070Z,84.65
2022-11-25T16:16:49.432Z,84.91
2022-11-25T16:19:19.480Z,85.05
2022-11-25T16:21:51.945Z,85.19
2022-11-25T16:24:36.296Z,85.18
2022-11-25T16:27:06.109Z,85.32
2022-11-25T16:29:37.712Z,85.30
2022-11-25T16:32:15.284Z,85.52
2022-11-25T16:34:43.248Z,85.67
2022-11-25T16:37:11.605Z,85.50
2022-11-25T16:39:39.838Z,85.26
2022-11-25T16:42:20.491Z,85.60
2022-11-25T16:44:50.047Z,85.48
2022-11-25T16:47:20.485Z,85.57
2022-11-25T16:49:48.894Z,85.50
2022-11-25T16:52:16.714Z,85.26
2022-11-25T16:54:44.917Z,85.19
2022-11-25T16:57:18.868Z,85.01
2022-11-25T16:59:47.707Z,84.82
2022-11-25T17:02:18.572Z,84.52
2022-11-25T17:04:48.678Z,84.56
2022-11-25T17:07:32.752Z,84.97
2022-11-25T17:10:12.233Z,84.96
2022-11-25T17:12:40.647Z,84.63
2022-11-25T17:15:20.325Z,84.73
2022-11-25T17:17:49.028Z,85.21
2022-11-25T17:20:26.740Z,85.12
2022-11-25T17:22:55.306Z,84.91
2022-11-25T17:25:35.297Z,85.09
2022-11-25T17:28:10.345Z,84.94
2022-11-25T17:30:39.942Z,84.87
2022-11-25T17:33:13.161Z,84.76
2022-11-25T17:35:43.619Z,84.35
2022-11-25T17:38:14.098Z,84.08
2022-11-25T17:40:44.827Z,83.94
2022-11-25T17:43:15.939Z,84.13
2022-11-25T17:45:43.969Z,84.54
2022-11-25T17:48:12.878Z,84.20
2022-11-25T17:50:42.369Z,84.53
2022-11-25T17:53:12.391Z,84.51
2022-11-25T17:55:40.535Z,84.80
2022-11-25T17:58:10.724Z,84.68
2022-11-25T18:00:42.678Z,85.23
2022-11-25T18:03:11.603Z,85.74
2022-11-25T18:05:39.619Z,86.48
2022-11-25T18:08:09.178Z,87.08
2022-11-25T18:10:36.958Z,87.57
2022-11-25T18:13:04.876Z,87.82
2022-11-25T18:15:34.983Z,88.00
2022-11-25T18:18:05.599Z,87.87
2022-11-25T18:20:34.515Z,87.72
2022-11-25T18:23:02.435Z,87.95
2022-11-25T18:25:33.157Z,88.01
2022-11-25T18:28:02.088Z,88.12
2022-11-25T18:30:31.260Z,88.06
2022-11-25T18:32:59.214Z,87.83
2022-11-25T18:35:35.483Z,87.50
2022-11-25T18:38:04.063Z,87.71
2022-11-25T18:40:35.739Z,87.29
2022-11-25T18:43:05.567Z,87.42
2022-11-25T18:45:42.105Z,87.37
2022-11-25T18:48:20.832Z,87.35
2022-11-25T18:50:49.723Z,87.38
2022-11-25T18:53:18.012Z,86.92
2022-11-25T18:55:47.752Z,87.03
2022-11-25T18:58:18.890Z,86.93
2022-11-25T19:00:48.710Z,86.81
2022-11-25T19:03:20.352Z,87.16
2022-11-25T19:05:49.021Z,87.39
2022-11-25T19:08:18.387Z,87.42
2022-11-25T19:10:49.072Z,87.38
2022-11-25T19:13:19.302Z,87.53
2022-11-25T19:15:47.303Z,87.10
2022-11-25T19:18:18.672Z,87.28
2022-11-25T19:20:47.699Z,87.06
2022-11-25T19:23:21.233Z,87.00
2022-11-25T19:25:51.812Z,86.93
2022-11-25T19:28:20.025Z,86.98
2022-11-25T19:30:48.317Z,86.90
2022-11-25T19:33:32.008Z,86.93
2022-11-25T19:36:00.964Z,86.79
2022-11-25T19:38:29.930Z,87.02
2022-11-25T19:41:01.568Z,86.84
2022-11-25T19:43:29.273Z,87.10
2022-11-25T19:45:59.511Z,86.94
2022-11-25T19:48:29.891Z,87.07
2022-11-25T19:51:00.245Z,86.71
2022-11-25T19:53:33.555Z,86.73
2022-11-25T19:56:06.838Z,86.52
2022-11-25T19:58:34.626Z,86.68
2022-11-25T20:01:04.028Z,86.70
2022-11-25T20:03:32.720Z,87.14
2022-11-25T20:06:00.555Z,87.16
2022-11-25T20:08:29.706Z,87.30
2022-11-25T20:10:58.584Z,87.01
2022-11-25T20:13:28.314Z,87.31
2022-11-25T20:15:56.766Z,87.27
2022-11-25T20:18:26.096Z,87.24
2022-11-25T20:20:57.622Z,87.35
2022-11-25T20:23:28.253Z,87.31
2022-11-25T20:25:56.238Z,87.16
2022-11-25T20:28:26.336Z,86.82
2022-11-25T20:30:55.965Z,87.04
2022-11-25T20:33:25.023Z,87.30
2022-11-25T20:36:04.493Z,86.93
2022-11-25T20:38:33.687Z,87.18
2022-11-25T20:41:02.738Z,87.25
2022-11-25T20:43:32.305Z,87.35
2022-11-25T20:46:04.893Z,87.21
2022-11-25T20:48:34.962Z,87.12
2022-11-25T20:51:03.490Z,86.93
2022-11-25T20:53:32.597Z,87.18
2022-11-25T20:56:00.890Z,86.88
2022-11-25T20:58:30.565Z,86.72
2022-11-25T21:00:59.055Z,86.79
2022-11-25T21:03:28.734Z,87.02
2022-11-25T21:06:00.907Z,86.94
2022-11-25T21:08:31.998Z,87.23
2022-11-25T21:11:00.204Z,87.02
2022-11-25T21:13:29.881Z,86.91
2022-11-25T21:15:58.169Z,86.65
2022-11-25T21:18:26.434Z,86.79
2022-11-25T21:20:57.162Z,86.94
2022-11-25T21:23:27.638Z,87.05
2022-11-25T21:25:56.064Z,87.27
2022-11-25T21:28:26.673Z,87.75
2022-11-25T21:30:54.582Z,88.17
2022-11-25T21:33:22.478Z,88.10
2022-11-25T21:35:52.936Z,88.10
2022-11-25T21:38:23.208Z,88.18
2022-11-25T21:40:52.543Z,88.19
2022-11-25T21:43:25.213Z,88.27
2022-11-25T21:45:55.869Z,88.03
2022-11-25T21:48:26.225Z,88.41
2022-11-25T21:50:54.179Z,88.14
2022-11-25T21:53:23.382Z,88.13
2022-11-25T21:55:51.873Z,88.11
2022-11-25T21:58:21.061Z,88.30
2022-11-25T22:00:52.956Z,88.27
2022-11-25T22:03:22.213Z,88.32
2022-11-25T22:05:50.256Z,88.07
2022-11-25T22:08:20.111Z,88.01
2022-11-25T22:10:50.502Z,87.82
2022-11-25T22:13:20.938Z,87.75
2022-11-25T22:15:50.564Z,88.19
2022-11-25T22:18:20.748Z,88.07
2022-11-25T22:20:53.302Z,88.10
2022-11-25T22:23:22.429Z,88.33
2022-11-25T22:25:52.266Z,88.24
2022-11-25T22:28:22.970Z,88.02
2022-11-25T22:30:51.926Z,87.94
2022-11-25T22:33:20.362Z,88.16
2022-11-25T22:35:48.232Z,87.85
2022-11-25T22:38:18.717Z,87.80
2022-11-25T22:40:47.992Z,87.90
2022-11-25T22:43:19.312Z,87.93
2022-11-25T22:45:47.495Z,88.06
2022-11-25T22:48:16.972Z,87.96
2022-11-25T22:50:46.433Z,88.19
2022-11-25T22:53:15.641Z,88.15
2022-11-25T22:55:44.326Z,88.28
2022-11-25T22:58:13.086Z,88.35
2022-11-25T23:00:45.624Z,88.43
2022-11-25T23:03:16.986Z,88.48
2022-11-25T23:05:44.645Z,88.21
2022-11-25T23:08:14.256Z,88.26
2022-11-25T23:10:41.937Z,88.26
2022-11-25T23:13:10.108Z,88.16
2022-11-25T23:15:38.017Z,87.64
2022-11-25T23:18:14.453Z,87.74
2022-11-25T23:20:42.789Z,87.68
2022-11-25T23:23:14.351Z,87.95
2022-11-25T23:25:42.392Z,87.71
2022-11-25T23:28:10.308Z,87.85
2022-11-25T23:30:38.959Z,87.44
2022-11-25T23:33:14.370Z,87.57
2022-11-25T23:35:42.009Z,87.23
2022-11-25T23:38:16.333Z,87.39
2022-11-25T23:40:44.074Z,87.18
2022-11-25T23:43:13.661Z,87.33
2022-11-25T23:45:47.259Z,87.22
2022-11-25T23:48:16.490Z,87.16
2022-11-25T23:50:44.577Z,87.23
2022-11-25T23:53:16.842Z,87.37
2022-11-25T23:55:44.508Z,87.09
2022-11-25T23:58:16.213Z,87.09
